Latest Weather Observations for St Helens

IDT60801

Issued at 11:31 pm EST Wednesday 29 July 2015 (issued every 30 minutes, with the page automatically refreshed every 10 minutes)

About weather observations | Map of weather stations | Latest weather observations for TAS | Other Formats
Station Details ID: 092120 Name: ST HELENS AERODROME Lat: -41.34 Lon: 148.28 Height: 48.0 m
Data from the previous 72 hours. | See also: Recent months at St Helens
Date/Time
EST
Temp
°C
App
Temp
°C
Dew
Point
Rel
Hum
%
Delta-T
°C
Wind Press
QNH
hPa
Press
MSL
hPa
Rain
since 9 am
mm
Dir
 
Spd
km/h
Gust
km/h
Spd
kts
Gust
kts
29/11:30pm 10.5 7.4 5.5 71 2.3 NW 11 24 6 13 1022.6 - 0.4
29/11:00pm 10.8 7.0 5.6 70 2.4 NW 15 26 8 14 1023.2 - 0.4
29/10:30pm 10.9 6.2 5.2 68 2.6 WNW 19 32 10 17 1023.5 - 0.4
29/10:00pm 10.7 6.5 5.9 72 2.2 NNW 17 22 9 12 1023.8 - 0.4
29/09:30pm 10.3 7.5 7.0 80 1.6 NNW 11 20 6 11 1023.9 - 0.4
29/09:00pm 9.9 7.9 7.0 82 1.4 NNW 7 15 4 8 1024.1 1024.2 0.4
29/08:30pm 10.1 6.6 7.2 82 1.4 N 15 22 8 12 1024.2 - 0.4
29/08:00pm 10.2 7.1 7.1 81 1.5 N 13 17 7 9 1024.3 - 0.4
29/07:30pm 10.3 7.1 7.0 80 1.6 NNW 13 20 7 11 1024.5 - 0.4
29/07:00pm 10.5 7.2 6.5 76 1.9 NNW 13 28 7 15 1024.3 - 0.4
29/06:30pm 10.4 6.7 6.5 77 1.8 NW 15 22 8 12 1024.5 - 0.4
29/06:00pm 10.4 6.7 6.5 77 1.8 NNW 15 28 8 15 1024.2 1024.4 0.4
29/05:30pm 10.6 7.4 6.7 77 1.8 NNW 13 22 7 12 1024.4 - 0.4
29/05:00pm 10.6 7.5 7.1 79 1.7 NNW 13 20 7 11 1024.4 - 0.4
29/04:30pm 11.1 7.5 6.8 75 2.0 NNW 15 24 8 13 1024.5 - 0.4
29/04:00pm 11.4 7.8 6.7 73 2.2 NW 15 20 8 11 1024.7 - 0.4
29/03:30pm 11.6 8.0 6.9 73 2.2 NW 15 24 8 13 1025.0 - 0.4
29/03:00pm 11.8 8.6 6.9 72 2.3 NW 13 20 7 11 1025.1 1025.2 0.4
29/02:30pm 12.0 8.8 6.9 71 2.4 NW 13 22 7 12 1025.3 - 0.4
29/02:00pm 12.3 8.2 6.4 67 2.8 NW 17 28 9 15 1025.5 - 0.4
29/01:30pm 12.5 8.3 5.9 64 3.1 NW 17 28 9 15 1025.5 - 0.4
29/01:00pm 13.2 9.7 5.4 59 3.7 W 13 30 7 16 1025.8 - 0.4
29/12:30pm 12.9 9.0 5.3 60 3.5 W 15 26 8 14 1026.3 - 0.4
29/12:00pm 12.9 9.5 5.8 62 3.3 NW 13 20 7 11 1026.9 1026.9 0.4
29/11:00am 11.7 7.9 5.6 66 2.8 NW 15 20 8 11 1027.9 - 0.0
29/10:30am 11.2 8.0 5.3 67 2.7 WNW 11 19 6 10 1028.4 - 0.0
29/10:00am 10.4 7.7 5.8 73 2.1 WNW 9 15 5 8 1028.6 - 0.0
29/09:30am 10.0 6.9 5.6 74 2.0 WNW 11 20 6 11 1028.5 - 0.0
29/09:00am 9.4 5.6 5.8 78 1.6 WNW 15 22 8 12 1028.3 1028.4 0.0
29/08:30am 8.1 3.8 5.4 83 1.2 WNW 17 30 9 16 1028.4 - 0.0
29/08:00am 7.1 4.3 5.3 88 0.8 NNW 9 19 5 10 1028.3 - 0.0
29/07:30am 7.3 3.9 5.8 90 0.7 W 13 22 7 12 1028.0 - 0.0
29/07:00am 6.2 3.0 5.3 94 0.4 W 11 17 6 9 1028.2 - 0.0
29/06:30am 5.5 1.1 4.8 95 0.3 NNW 17 22 9 12 1028.0 - 0.0
29/06:00am 5.5 2.7 5.1 97 0.2 W 9 15 5 8 1027.9 1028.0 0.0
29/05:30am 4.5 1.9 4.1 97 0.2 NNW 7 13 4 7 1027.8 - 0.0
29/05:00am 4.7 2.1 4.3 97 0.2 NNW 7 13 4 7 1027.9 - 0.0
29/04:30am 4.9 1.9 4.3 96 0.3 NW 9 15 5 8 1028.0 - 0.0
29/04:00am 4.8 1.1 4.2 96 0.3 NW 13 15 7 8 1027.9 - 0.0
29/03:30am 5.0 1.7 4.4 96 0.3 NNW 11 15 6 8 1028.2 - 0.0
29/03:00am 5.3 2.4 4.6 95 0.3 NNW 9 15 5 8 1028.2 1028.3 0.0
29/02:30am 6.2 3.1 5.5 95 0.3 NW 11 19 6 10 1028.4 - 0.0
29/02:00am 6.3 2.8 5.4 94 0.4 WNW 13 17 7 9 1028.5 - 0.0
29/01:30am 6.5 3.0 5.6 94 0.4 NW 13 17 7 9 1028.5 - 0.0
29/01:00am 7.0 4.0 6.1 94 0.4 NW 11 17 6 9 1028.7 - 0.0
29/12:30am 6.9 3.1 6.0 94 0.4 NNW 15 17 8 9 1028.8 - 0.0
29/12:00am 6.9 3.5 6.0 94 0.4 NW 13 17 7 9 1028.8 1028.9 0.0
 
Date/Time
EST
Temp
°C
App
Temp
°C
Dew
Point
Rel
Hum
%
Delta-T
°C
Wind Press
QNH
hPa
Press
MSL
hPa
Rain
since 9 am
mm
Dir
 
Spd
km/h
Gust
km/h
Spd
kts
Gust
kts
28/11:30pm 6.4 2.5 5.5 94 0.4 NNW 15 17 8 9 1028.7 - 0.0
28/11:00pm 7.0 4.0 5.9 93 0.5 NNW 11 15 6 8 1028.6 - 0.0
28/10:30pm 7.1 4.1 5.9 92 0.5 NNW 11 13 6 7 1028.6 - 0.0
28/10:00pm 7.8 6.2 6.4 91 0.6 NNW 4 9 2 5 1028.6 - 0.0
28/09:30pm 7.8 5.2 6.1 89 0.8 NNW 9 15 5 8 1028.4 - 0.0
28/09:00pm 8.6 6.5 6.7 88 0.9 NNW 7 13 4 7 1028.4 1028.5 0.0
28/08:30pm 9.1 6.7 6.9 86 1.0 WNW 9 13 5 7 1028.3 - 0.0
28/08:00pm 9.5 7.5 6.9 84 1.2 W 7 13 4 7 1028.1 - 0.0
28/07:30pm 10.2 8.4 7.3 82 1.4 WNW 6 11 3 6 1027.9 - 0.0
28/07:00pm 10.1 8.6 7.0 81 1.5 W 4 7 2 4 1027.8 - 0.0
28/06:30pm 10.9 8.6 7.4 79 1.7 NW 9 15 5 8 1027.4 - 0.0
28/06:00pm 11.6 9.6 7.1 74 2.1 WNW 7 13 4 7 1027.0 1027.1 0.0
28/05:30pm 11.9 9.9 7.2 73 2.3 WNW 7 13 4 7 1026.7 - 0.0
28/05:00pm 12.8 10.4 6.8 67 2.9 W 9 13 5 7 1026.5 - 0.0
28/04:30pm 14.0 11.9 6.6 61 3.6 WNW 7 24 4 13 1026.1 - 0.0
28/04:00pm 15.1 13.0 6.7 57 4.1 W 7 13 4 7 1025.8 - 0.0
28/03:30pm 15.4 12.8 6.1 54 4.5 WSW 9 15 5 8 1025.7 - 0.0
28/03:00pm 15.8 12.8 6.0 52 4.7 WNW 11 20 6 11 1025.5 1025.6 0.0
28/02:30pm 15.9 13.6 5.5 50 5.0 NW 7 13 4 7 1025.4 - 0.0
28/02:00pm 15.8 13.4 5.4 50 5.0 NNW 7 11 4 6 1025.4 - 0.0
28/01:30pm 15.5 12.9 4.2 47 5.3 NNW 7 13 4 7 1025.6 - 0.0
28/01:00pm 15.4 13.0 4.5 48 5.1 WNW 6 7 3 4 1025.7 - 0.0
28/12:30pm 14.8 12.3 4.5 50 4.8 NNW 7 13 4 7 1026.0 - 0.0
28/12:00pm 14.4 12.1 5.5 55 4.2 WNW 7 9 4 5 1026.4 1026.5 0.0
28/11:30am 13.4 12.2 6.5 63 3.3 WNW 2 6 1 3 1026.7 - 0.0
28/11:00am 12.5 10.5 6.3 66 2.9 W 6 9 3 5 1026.9 - 0.0
28/10:30am 11.1 8.7 5.2 67 2.7 W 7 11 4 6 1027.1 - 0.0
28/10:00am 9.0 7.1 5.0 76 1.8 W 4 9 2 5 1026.9 - 0.0
28/09:30am 8.2 5.3 4.6 78 1.6 NNW 9 13 5 7 1026.7 - 0.0
28/09:00am 6.8 3.9 4.5 85 1.0 NNW 9 15 5 8 1026.5 1026.6 0.0
28/08:30am 5.3 1.8 3.3 87 0.8 N 11 17 6 9 1026.2 - 0.0
28/08:00am 5.0 1.9 3.5 90 0.6 NNW 9 15 5 8 1025.9 - 0.0
28/07:30am 4.0 0.8 2.8 92 0.5 NNW 9 11 5 6 1025.5 - 0.0
28/07:00am 4.6 1.4 3.3 91 0.5 NW 9 11 5 6 1025.0 - 0.0
28/06:30am 4.4 1.7 3.8 96 0.3 WNW 7 11 4 6 1024.8 - 0.0
28/06:00am 3.7 0.5 3.1 96 0.2 NW 9 13 5 7 1024.2 1024.3 0.0
28/05:30am 3.0 0.1 2.4 96 0.2 NNW 7 11 4 6 1023.9 - 0.0
28/05:00am 3.0 -0.3 2.3 95 0.3 N 9 13 5 7 1023.8 - 0.0
28/04:30am 2.6 -0.4 1.7 94 0.3 N 7 11 4 6 1023.5 - 0.0
28/04:00am 2.1 -1.8 0.9 92 0.5 NW 11 17 6 9 1023.3 - 0.0
28/03:30am 3.8 0.5 2.5 91 0.5 WNW 9 13 5 7 1023.4 - 0.0
28/03:00am 3.5 0.2 2.2 91 0.5 NW 9 13 5 7 1023.6 1023.6 0.0
28/02:30am 3.6 0.2 1.6 87 0.8 NNW 9 15 5 8 1023.5 - 0.0
28/02:00am 4.5 1.8 2.5 87 0.8 WSW 6 9 3 5 1023.1 - 0.0
28/01:30am 3.6 0.2 2.1 90 0.6 NNW 9 11 5 6 1022.5 - 0.0
28/01:00am 4.6 1.2 2.0 83 1.0 NNW 9 11 5 6 1022.0 - 0.0
28/12:30am 5.5 2.7 3.0 84 1.0 NNW 7 11 4 6 1021.8 - 0.0
28/12:00am 4.6 1.7 2.6 87 0.8 NNW 7 11 4 6 1021.8 1021.9 0.0
 
Date/Time
EST
Temp
°C
App
Temp
°C
Dew
Point
Rel
Hum
%
Delta-T
°C
Wind Press
QNH
hPa
Press
MSL
hPa
Rain
since 9 am
mm
Dir
 
Spd
km/h
Gust
km/h
Spd
kts
Gust
kts
27/11:30pm 5.5 2.3 3.0 84 1.0 N 9 13 5 7 1021.8 - 0.0
27/11:00pm 5.2 2.0 2.9 85 0.9 N 9 11 5 6 1021.9 - 0.0
27/10:30pm 5.9 1.9 2.9 81 1.2 N 13 19 7 10 1021.7 - 0.0
27/10:00pm 6.1 3.3 3.1 81 1.3 NNW 7 15 4 8 1021.4 - 0.0
27/09:30pm 6.6 3.1 3.4 80 1.4 WNW 11 15 6 8 1021.4 - 0.0
27/09:00pm 6.1 3.4 3.6 84 1.1 WNW 7 9 4 5 1021.3 1021.4 0.0
27/08:30pm 7.1 4.0 3.7 79 1.5 NW 9 11 5 6 1021.1 - 0.0
27/08:00pm 6.0 3.3 3.5 84 1.1 NNW 7 11 4 6 1021.0 - 0.0
27/07:30pm 6.7 3.9 3.1 78 1.5 NNW 7 9 4 5 1020.7 - 0.0
27/07:00pm 7.9 6.1 3.4 73 1.9 NW 2 7 1 4 1020.4 - 0.0
27/06:30pm 8.5 5.7 3.4 70 2.2 NNW 7 9 4 5 1020.0 - 0.0
27/06:00pm 8.9 6.1 3.3 68 2.4 N 7 9 4 5 1019.5 1019.6 0.0
27/05:30pm 9.6 6.9 2.7 62 2.9 WNW 6 7 3 4 1019.1 - 0.0
27/05:00pm 10.5 7.6 2.8 59 3.3 W 7 11 4 6 1018.6 - 0.0
27/04:30pm 11.8 9.1 2.5 53 4.0 WNW 6 11 3 6 1018.2 - 0.0
27/04:00pm 11.2 8.5 3.5 59 3.4 SW 7 9 4 5 1018.0 - 0.0
27/03:30pm 11.4 7.0 2.9 56 3.7 SSW 15 28 8 15 1017.8 - 0.0
27/03:00pm 11.8 7.3 2.0 51 4.2 WSW 15 32 8 17 1017.4 1017.6 0.0
27/02:30pm 11.4 7.7 2.4 54 3.9 SW 11 17 6 9 1017.0 - 0.0
27/02:00pm 11.2 7.4 2.0 53 3.9 SW 11 24 6 13 1016.8 - 0.0
27/01:30pm 11.8 8.6 3.3 56 3.8 W 9 17 5 9 1016.7 - 0.0
27/01:00pm 11.8 8.2 3.1 55 3.8 W 11 20 6 11 1016.6 - 0.0
27/12:30pm 10.8 7.5 2.6 57 3.5 WNW 9 22 5 12 1016.8 - 0.0
27/12:00pm 11.2 7.5 2.5 55 3.7 W 11 20 6 11 1017.2 1017.3 0.0
27/11:30am 10.0 5.8 1.6 56 3.5 WSW 13 24 7 13 1017.2 - 0.0
27/11:00am 10.2 6.8 1.6 55 3.6 WNW 9 13 5 7 1017.3 - 0.0
27/10:30am 9.1 5.1 0.6 55 3.4 WSW 11 15 6 8 1017.2 - 0.0
27/10:00am 7.2 3.7 1.3 66 2.4 WSW 9 15 5 8 1016.8 - 0.0
27/09:30am 6.1 2.1 0.2 66 2.3 WNW 11 19 6 10 1016.7 - 0.0
27/09:00am 5.5 1.8 -0.3 66 2.2 N 9 15 5 8 1016.8 1016.9 0.2
27/08:30am 4.9 1.2 -0.3 69 2.0 WNW 9 13 5 7 1016.2 - 0.2
27/08:00am 4.0 1.5 -1.2 69 1.9 WSW 2 9 1 5 1015.6 - 0.2
27/07:30am 5.6 0.2 -1.5 60 2.6 SW 17 32 9 17 1015.1 - 0.2
27/07:00am 5.7 0.7 -1.4 60 2.6 WSW 15 30 8 16 1014.4 - 0.2
27/06:30am 3.3 -0.1 -0.9 74 1.5 W 7 17 4 9 1014.1 - 0.2
27/06:00am 3.4 0.1 -1.0 73 1.6 N 6 17 3 9 1013.6 1013.6 0.2
27/05:30am 3.4 0.0 -0.6 75 1.5 WNW 7 13 4 7 1012.6 - 0.2
27/05:00am 3.1 -0.8 -1.6 71 1.7 E 9 13 5 7 1012.1 - 0.2
27/04:30am 5.0 1.2 -1.0 65 2.2 N 9 15 5 8 1011.4 - 0.2
27/04:00am 5.3 2.4 -1.4 62 2.5 E 4 11 2 6 1010.8 - 0.2
27/03:30am 5.5 2.0 -1.6 60 2.6 NE 7 13 4 7 1010.1 - 0.2
27/03:00am 6.3 2.0 -1.6 57 2.9 NNE 11 17 6 9 1009.6 1009.7 0.2
27/02:30am 7.2 2.9 -1.5 54 3.3 WNW 11 20 6 11 1009.2 - 0.2
27/02:00am 7.3 3.1 -0.9 56 3.1 NNW 11 17 6 9 1008.5 - 0.2
27/01:30am 7.0 1.7 -0.9 57 3.0 WSW 17 30 9 16 1006.9 - 0.2
27/01:00am 7.9 3.0 -0.6 55 3.3 WNW 15 24 8 13 1007.2 - 0.2
27/12:30am 7.5 3.4 -0.5 57 3.1 WSW 11 28 6 15 1006.7 - 0.2
27/12:00am 7.1 3.4 0.1 61 2.7 W 9 20 5 11 1006.3 1006.5 0.2

Other Formats:

Comma delimited format used in spreadsheet applications
http://www.bom.gov.au/fwo/IDT60801/IDT60801.95981.axf

JavaScript Object Notation format (JSON) in row-major order
http://www.bom.gov.au/fwo/IDT60801/IDT60801.95981.json